Citadel — PBOK — position and weather

sailwx.info

Track history (hours):
 
Tides and Currents Weather Stations Pressure Air Temp Water Temp Dewpoint Dewpoint Depression Visibility Wind Speed Wind Dir Waves Ship Positions

Citadel

Last reported at 2018-Feb-11 11:53 UTC. Time now 2018-Feb-18 01:34 UTC.
Position N 42°50' E 010°35'.

Length 111 m; draft 6.2 m.

Type: Ship. MMSI: 245977000.

Date/timePositionNaut miles runAvg speedWind from/ knotsBaromVisibWave heightAir tempDewpointWater temp
2018-Feb-11 11:53N 42°50' E 010°35'  
2018-Feb-06 13:59N 37°15' W 000°42'23211.0
2018-Feb-05 16:57N 35°56' W 005°14'5 5.2
2018-Feb-05 16:00N 35°54' W 005°19'272 8.8
2018-Feb-04 09:00N 38°28' W 010°01'611.3
2018-Feb-04 08:29N 38°34' W 010°02'611.5
2018-Feb-04 08:00N 38°39' W 010°04'611.8
2018-Feb-04 07:30N 38°45' W 010°05'611.2
2018-Feb-04 07:00N 38°50' W 010°05'611.2
2018-Feb-04 06:30N 38°56' W 010°05'511.0
2018-Feb-04 06:01N 39°01' W 010°05'510.5
2018-Feb-04 05:30N 39°07' W 010°05'610.9
2018-Feb-04 05:00N 39°12' W 010°05'  
Track history (hours):
 
Tides and Currents Weather Stations Pressure Air Temp Water Temp Dewpoint Dewpoint Depression Visibility Wind Speed Wind Dir Waves Ship Positions

Citadel

Last reported at 2018-Feb-11 11:53 UTC. Time now 2018-Feb-18 01:34 UTC.
Position N 42°50' E 010°35'.

Length 111 m; draft 6.2 m.

Type: Ship. MMSI: 245977000.

Date/timePositionNaut miles runAvg speedWind from/ knotsBaromVisibWave heightAir tempDewpointWater temp
2018-Feb-11 11:53N 42°50' E 010°35'  
2018-Feb-06 13:59N 37°15' W 000°42'23211.0
2018-Feb-05 16:57N 35°56' W 005°14'5 5.2
2018-Feb-05 16:00N 35°54' W 005°19'272 8.8
2018-Feb-04 09:00N 38°28' W 010°01'611.3
2018-Feb-04 08:29N 38°34' W 010°02'611.5
2018-Feb-04 08:00N 38°39' W 010°04'611.8
2018-Feb-04 07:30N 38°45' W 010°05'611.2
2018-Feb-04 07:00N 38°50' W 010°05'611.2
2018-Feb-04 06:30N 38°56' W 010°05'511.0
2018-Feb-04 06:01N 39°01' W 010°05'510.5
2018-Feb-04 05:30N 39°07' W 010°05'610.9
2018-Feb-04 05:00N 39°12' W 010°05'  

Dump ship's entire track history